(°C)
-1°
-3°
-5°
-5°
(°C)
-1°
-3°
-5°
-7°
-9°
-9°
JZ
JZ
ZJZ
ZJZ
ZJZ
ZJZ
ZJZ
(km/h)
4-6
4-6
3-7
2-8
3-8
4-10
4-12
(mm)
0
0
0
0
0
0
0
(%)
0
0
0
0
0
0
0

Sluneční výška

/ 13.4°
sun-icon
UV 1
07:40
16:27
Ubývající srpek (348°)
06:27
15:45

METAR pro Tirol (LOWI)

Čas Podmínky Teplota/
Rosný bod
Vítr Viditelnost Počasí Oblaky Tlak Změna Nezpracované
VFR 3°C / -6°C 130º variable 090º to 170º 3kt >10km - Few Clouds 3500ft 1014 No Significant change LOWI 031320Z 13003KT 090V170 9999 FEW035 03/M06 Q1014 NOSIG
VFR 4°C / -8°C 260º variable 200º to 330º 3kt >10km - Few Clouds 3500ft 1014 No Significant change LOWI 031250Z 26003KT 200V330 9999 FEW035 04/M08 Q1014 NOSIG
VFR 4°C / -7°C variable 2kt >10km - Few Clouds 3500ft 1014 No Significant change LOWI 031220Z VRB02KT 9999 FEW035 04/M07 Q1014 NOSIG
VFR 3°C / -7°C variable 2kt >10km - Few Clouds 2000ft
Scattered Clouds 5500ft
1014 No Significant change LOWI 031150Z VRB02KT 9999 FEW020 SCT055 03/M07 Q1014 NOSIG
VFR 3°C / -3°C variable 1kt >10km - Few Clouds 2000ft
Scattered Clouds 5500ft
1014 No Significant change LOWI 031120Z VRB01KT 9999 FEW020 SCT055 03/M03 Q1014 NOSIG
VFR 3°C / -4°C 240º variable 190º to 290º 4kt >10km - Few Clouds 2000ft
Scattered Clouds 5500ft
1014 No Significant change LOWI 031050Z 24004KT 190V290 9999 FEW020 SCT055 03/M04 Q1014 NOSIG
VFR 2°C / -2°C 260º 4kt >10km - Few Clouds 900ft
Scattered Clouds 5500ft
1015 No Significant change LOWI 031020Z 26004KT 9999 FEW009 SCT055 02/M02 Q1015 NOSIG
VFR 2°C / -2°C variable 2kt >10km - Few Clouds 900ft
Scattered Clouds 4500ft
1015 No Significant change LOWI 030950Z VRB02KT 9999 FEW009 SCT045 02/M02 Q1015 NOSIG
VFR 2°C / -1°C variable 2kt >10km - Few Clouds 900ft
Scattered Clouds 4500ft
1015 No Significant change LOWI 030920Z VRB02KT 9999 FEW009 SCT045 02/M01 Q1015 NOSIG
VFR 1°C / -2°C variable 1kt >10km - Few Clouds 900ft
Scattered Clouds 4000ft
1015 No Significant change LOWI 030850Z VRB01KT 9999 FEW009 SCT040 01/M02 Q1015 NOSIG
VFR 1°C / -2°C 100º variable 070º to 130º 3kt >10km - Few Clouds 900ft
Scattered Clouds 4500ft
1015 No Significant change LOWI 030820Z 10003KT 070V130 9999 FEW009 SCT045 01/M02 Q1015 NOSIG
VFR 0°C / -2°C variable 2kt >10km - Few Clouds 400ft
Scattered Clouds 1100ft
Broken Clouds 3300ft
1014 No Significant change LOWI 030750Z VRB02KT 9999 FEW004 SCT011 BKN033 00/M02 Q1014 NOSIG
VFR 0°C / -2°C 70º variable 040º to 100º 4kt >10km - Few Clouds 400ft
Scattered Clouds 1100ft
Broken Clouds 3300ft
1014 No Significant change LOWI 030720Z 07004KT 040V100 9999 FEW004 SCT011 BKN033 M00/M02 Q1014 NOSIG
MVFR -1°C / -2°C 60º 4kt >10km - Few Clouds 400ft
Scattered Clouds 1100ft
Broken Clouds 2500ft
1013 No Significant change LOWI 030650Z 06004KT 9999 FEW004 SCT011 BKN025 M01/M02 Q1013 NOSIG
VFR 0°C / -2°C 80º 4kt >10km Light Snow 1.00mm precipitation Vertical Visibility of 0ft.
Scattered Clouds 1200ft
Broken Clouds 4500ft
1013 No Significant change LOWI 030620Z 08004KT 9999 -SN FEW004 SCT012 BKN045 M00/M02 Q1013 NOSIG
VFR 0°C / -2°C variable 2kt >10km Light Snow 1.00mm precipitation Vertical Visibility of 0ft.
Scattered Clouds 1200ft
Broken Clouds 4500ft
1012 No Significant change LOWI 030550Z VRB02KT 9999 -SN FEW004 SCT012 BKN045 M00/M02 Q1012 NOSIG
VFR 0°C / -1°C 270º 2kt >10km Light Showers Snow 3.00mm precipitation Vertical Visibility of 0ft.
Scattered Clouds 1200ft
Broken Clouds 4500ft
1012 No Significant change LOWI 030520Z 27002KT 9999 -SHSN FEW004 SCT012 BKN045 00/M01 Q1012 NOSIG
VFR 0°C / -1°C variable 1kt >10km - Few Clouds 400ft
Scattered Clouds 1200ft
Broken Clouds 4500ft
1011 No Significant change LOWI 030450Z VRB01KT 9999 FEW004 SCT012 BKN045 00/M01 Q1011 NOSIG
VFR 0°C / -1°C 300º 4kt >10km - Few Clouds 700ft
Scattered Clouds 3400ft
Broken Clouds 4800ft
1011 - LOWI 030420Z AUTO 30004KT 9999 FEW007 SCT034 BKN048 00/M01 Q1011
VFR 0°C / -1°C 260º 3kt >10km - Few Clouds 600ft
Scattered Clouds 3200ft
Broken Clouds 6000ft
1011 - LOWI 030350Z AUTO 26003KT 9999 FEW006 SCT032 BKN060 00/M01 Q1011
MVFR 1°C / -1°C variable 1kt >10km - Few Clouds 400ft
Broken Clouds 2600ft
1010 - LOWI 030320Z AUTO VRB01KT 9999 FEW004 BKN026 01/M01 Q1010
VFR 1°C / -1°C 70º variable 020º to 110º 3kt >10km Light Snow 1.00mm precipitation Vertical Visibility of 0ft.
Scattered Clouds 2000ft
Broken Clouds 5000ft
1010 - LOWI 030250Z AUTO 07003KT 020V110 9999 -SN FEW006 SCT020 BKN050 01/M01 Q1010
MVFR 1°C / -1°C 110º 5kt >10km Light Snow 1.00mm precipitation Vertical Visibility of 0ft.
Broken Clouds 2000ft
1010 - LOWI 030220Z AUTO 11005KT 9999 -SN SCT007 BKN020 01/M01 Q1010
MVFR 0°C / 0°C 90º variable 040º to 130º 4kt >10km - Few Clouds 600ft
Scattered Clouds 800ft
Broken Clouds 1700ft
1009 - LOWI 030150Z AUTO 09004KT 040V130 9999 FEW006 SCT008 BKN017 00/M00 Q1009

VFR

3°C / -6°C

[Víc]
Vítr 130º variable 090º to 170º 3kt
Viditelnost >10km
Počasí -
Oblaky Few Clouds 3500ft
Tlak 1014
Změna No Significant change
Nezpracované LOWI 031320Z 13003KT 090V170 9999 FEW035 03/M06 Q1014 NOSIG

VFR

4°C / -8°C

[Víc]
Vítr 260º variable 200º to 330º 3kt
Viditelnost >10km
Počasí -
Oblaky Few Clouds 3500ft
Tlak 1014
Změna No Significant change
Nezpracované LOWI 031250Z 26003KT 200V330 9999 FEW035 04/M08 Q1014 NOSIG

VFR

4°C / -7°C

[Víc]
Vítr variable 2kt
Viditelnost >10km
Počasí -
Oblaky Few Clouds 3500ft
Tlak 1014
Změna No Significant change
Nezpracované LOWI 031220Z VRB02KT 9999 FEW035 04/M07 Q1014 NOSIG

VFR

3°C / -7°C

[Víc]
Vítr variable 2kt
Viditelnost >10km
Počasí -
Oblaky Few Clouds 2000ft
Scattered Clouds 5500ft
Tlak 1014
Změna No Significant change
Nezpracované LOWI 031150Z VRB02KT 9999 FEW020 SCT055 03/M07 Q1014 NOSIG

VFR

3°C / -3°C

[Víc]
Vítr variable 1kt
Viditelnost >10km
Počasí -
Oblaky Few Clouds 2000ft
Scattered Clouds 5500ft
Tlak 1014
Změna No Significant change
Nezpracované LOWI 031120Z VRB01KT 9999 FEW020 SCT055 03/M03 Q1014 NOSIG

VFR

3°C / -4°C

[Víc]
Vítr 240º variable 190º to 290º 4kt
Viditelnost >10km
Počasí -
Oblaky Few Clouds 2000ft
Scattered Clouds 5500ft
Tlak 1014
Změna No Significant change
Nezpracované LOWI 031050Z 24004KT 190V290 9999 FEW020 SCT055 03/M04 Q1014 NOSIG

VFR

2°C / -2°C

[Víc]
Vítr 260º 4kt
Viditelnost >10km
Počasí -
Oblaky Few Clouds 900ft
Scattered Clouds 5500ft
Tlak 1015
Změna No Significant change
Nezpracované LOWI 031020Z 26004KT 9999 FEW009 SCT055 02/M02 Q1015 NOSIG

VFR

2°C / -2°C

[Víc]
Vítr variable 2kt
Viditelnost >10km
Počasí -
Oblaky Few Clouds 900ft
Scattered Clouds 4500ft
Tlak 1015
Změna No Significant change
Nezpracované LOWI 030950Z VRB02KT 9999 FEW009 SCT045 02/M02 Q1015 NOSIG

VFR

2°C / -1°C

[Víc]
Vítr variable 2kt
Viditelnost >10km
Počasí -
Oblaky Few Clouds 900ft
Scattered Clouds 4500ft
Tlak 1015
Změna No Significant change
Nezpracované LOWI 030920Z VRB02KT 9999 FEW009 SCT045 02/M01 Q1015 NOSIG

VFR

1°C / -2°C

[Víc]
Vítr variable 1kt
Viditelnost >10km
Počasí -
Oblaky Few Clouds 900ft
Scattered Clouds 4000ft
Tlak 1015
Změna No Significant change
Nezpracované LOWI 030850Z VRB01KT 9999 FEW009 SCT040 01/M02 Q1015 NOSIG

VFR

1°C / -2°C

[Víc]
Vítr 100º variable 070º to 130º 3kt
Viditelnost >10km
Počasí -
Oblaky Few Clouds 900ft
Scattered Clouds 4500ft
Tlak 1015
Změna No Significant change
Nezpracované LOWI 030820Z 10003KT 070V130 9999 FEW009 SCT045 01/M02 Q1015 NOSIG

VFR

0°C / -2°C

[Víc]
Vítr variable 2kt
Viditelnost >10km
Počasí -
Oblaky Few Clouds 400ft
Scattered Clouds 1100ft
Broken Clouds 3300ft
Tlak 1014
Změna No Significant change
Nezpracované LOWI 030750Z VRB02KT 9999 FEW004 SCT011 BKN033 00/M02 Q1014 NOSIG

VFR

0°C / -2°C

[Víc]
Vítr 70º variable 040º to 100º 4kt
Viditelnost >10km
Počasí -
Oblaky Few Clouds 400ft
Scattered Clouds 1100ft
Broken Clouds 3300ft
Tlak 1014
Změna No Significant change
Nezpracované LOWI 030720Z 07004KT 040V100 9999 FEW004 SCT011 BKN033 M00/M02 Q1014 NOSIG

MVFR

-1°C / -2°C

[Víc]
Vítr 60º 4kt
Viditelnost >10km
Počasí -
Oblaky Few Clouds 400ft
Scattered Clouds 1100ft
Broken Clouds 2500ft
Tlak 1013
Změna No Significant change
Nezpracované LOWI 030650Z 06004KT 9999 FEW004 SCT011 BKN025 M01/M02 Q1013 NOSIG

VFR

0°C / -2°C

[Víc]
Vítr 80º 4kt
Viditelnost >10km
Počasí Light Snow 1.00mm precipitation
Oblaky Vertical Visibility of 0ft.
Scattered Clouds 1200ft
Broken Clouds 4500ft
Tlak 1013
Změna No Significant change
Nezpracované LOWI 030620Z 08004KT 9999 -SN FEW004 SCT012 BKN045 M00/M02 Q1013 NOSIG

VFR

0°C / -2°C

[Víc]
Vítr variable 2kt
Viditelnost >10km
Počasí Light Snow 1.00mm precipitation
Oblaky Vertical Visibility of 0ft.
Scattered Clouds 1200ft
Broken Clouds 4500ft
Tlak 1012
Změna No Significant change
Nezpracované LOWI 030550Z VRB02KT 9999 -SN FEW004 SCT012 BKN045 M00/M02 Q1012 NOSIG

VFR

0°C / -1°C

[Víc]
Vítr 270º 2kt
Viditelnost >10km
Počasí Light Showers Snow 3.00mm precipitation
Oblaky Vertical Visibility of 0ft.
Scattered Clouds 1200ft
Broken Clouds 4500ft
Tlak 1012
Změna No Significant change
Nezpracované LOWI 030520Z 27002KT 9999 -SHSN FEW004 SCT012 BKN045 00/M01 Q1012 NOSIG

VFR

0°C / -1°C

[Víc]
Vítr variable 1kt
Viditelnost >10km
Počasí -
Oblaky Few Clouds 400ft
Scattered Clouds 1200ft
Broken Clouds 4500ft
Tlak 1011
Změna No Significant change
Nezpracované LOWI 030450Z VRB01KT 9999 FEW004 SCT012 BKN045 00/M01 Q1011 NOSIG

VFR

0°C / -1°C

[Víc]
Vítr 300º 4kt
Viditelnost >10km
Počasí -
Oblaky Few Clouds 700ft
Scattered Clouds 3400ft
Broken Clouds 4800ft
Tlak 1011
Změna -
Nezpracované LOWI 030420Z AUTO 30004KT 9999 FEW007 SCT034 BKN048 00/M01 Q1011

VFR

0°C / -1°C

[Víc]
Vítr 260º 3kt
Viditelnost >10km
Počasí -
Oblaky Few Clouds 600ft
Scattered Clouds 3200ft
Broken Clouds 6000ft
Tlak 1011
Změna -
Nezpracované LOWI 030350Z AUTO 26003KT 9999 FEW006 SCT032 BKN060 00/M01 Q1011

MVFR

1°C / -1°C

[Víc]
Vítr variable 1kt
Viditelnost >10km
Počasí -
Oblaky Few Clouds 400ft
Broken Clouds 2600ft
Tlak 1010
Změna -
Nezpracované LOWI 030320Z AUTO VRB01KT 9999 FEW004 BKN026 01/M01 Q1010

VFR

1°C / -1°C

[Víc]
Vítr 70º variable 020º to 110º 3kt
Viditelnost >10km
Počasí Light Snow 1.00mm precipitation
Oblaky Vertical Visibility of 0ft.
Scattered Clouds 2000ft
Broken Clouds 5000ft
Tlak 1010
Změna -
Nezpracované LOWI 030250Z AUTO 07003KT 020V110 9999 -SN FEW006 SCT020 BKN050 01/M01 Q1010

MVFR

1°C / -1°C

[Víc]
Vítr 110º 5kt
Viditelnost >10km
Počasí Light Snow 1.00mm precipitation
Oblaky Vertical Visibility of 0ft.
Broken Clouds 2000ft
Tlak 1010
Změna -
Nezpracované LOWI 030220Z AUTO 11005KT 9999 -SN SCT007 BKN020 01/M01 Q1010

MVFR

0°C / 0°C

[Víc]
Vítr 90º variable 040º to 130º 4kt
Viditelnost >10km
Počasí -
Oblaky Few Clouds 600ft
Scattered Clouds 800ft
Broken Clouds 1700ft
Tlak 1009
Změna -
Nezpracované LOWI 030150Z AUTO 09004KT 040V130 9999 FEW006 SCT008 BKN017 00/M00 Q1009

TAF pro Tirol (LOWI)

From till


Maximum Temperature 3ºC on . Minimum Temperature -3ºC on .
From till Wind variable 2kt. Visibility 10km or more. Few Clouds 4000ft.
Becoming from till Wind 270º 8kt. Visibility 10km or more. Few Clouds 4000ft.

Nezpracované: TAF LOWI 031115Z 0312/0412 VRB02KT 9999 FEW040 TX03/0412Z TNM03/0321Z BECMG 0322/0324 27008KT

Radar pro Tirol

Mrholení
Slabé
Střední
Silné
Velmi silné
Kroupy

Značka lokality je umístněna na Tirol. Tato animace ukazuje srážky zaznamenané radarem za poslední hodinu a také 2h předpověď. Mrholení nebo slabé sněžení může být pro radar neviditelné. Intenzita srážek je barevně označena od světle modré po oranžovou.
Copyright 2021 Deutscher Wetterdienst / meteoblue.

Aktuální snímky ze satelitu a srážky pro Tirol, Rakousko

Značka polohy je umístěna na Tirol. [Víc]

Satelitní snímek v reálném čase kombinuje viditelné světlo během dne s infračerveným zářením během noci. V noci není obraz tmavý, protože infračervené záření dokáže detekovat teplotní rozdíly. Nízká oblačnost a mlha se bohužel těžko odlišují od pozemních teplot, a proto mohou být během noci téměř neviditelné. Satelitní snímky z Meteosatu pro Evropu jsou aktualizovány v reálném čase každých 5 minut. Snímky z GOES-16/GOES-17 (Severní a Jižní Amerika) a Himawari (Asie) jsou aktualizovány) každých 10 minut.

Srážky jsou odhadované na základě radaru a satelitů. V noci jsou odhady srážek ze satelitů méně přesné než během dne. Oranžové křížky označují místa, kde byl zaznamenán blesk (za Evropa).

Copyright 2021 EUMETSAT / meteoblue. Údaje o blescích poskytuje nowcast.